Time;durP1;ratioP1;P1;durP2;ratioP2;P2;SDS_P1;SDS_P2;PMS_P1;PMS_P2;Temp;Humidity;BMP_temperature;BMP_pressure;BME280_temperature;BME280_humidity;BME280_pressure;Samples;Min_cycle;Max_cycle;Signal;HPM_P1;HPM_P2
2024/01/12 00:00:19;;;;;;;50.13;27.60;;;0.40;99.90;;;;;;4987996;28;20049;-80
2024/01/12 00:02:45;;;;;;;48.75;25.42;;;0.40;99.90;;;;;;5030105;28;20404;-80
2024/01/12 00:05:11;;;;;;;51.58;26.42;;;0.40;99.90;;;;;;5012698;28;20443;-80
2024/01/12 00:07:36;;;;;;;47.45;24.83;;;0.40;99.90;;;;;;5027062;28;20037;-80
2024/01/12 00:10:02;;;;;;;52.42;25.48;;;0.40;99.90;;;;;;5006673;28;20042;-80
2024/01/12 00:12:28;;;;;;;43.17;25.60;;;0.50;99.90;;;;;;5021509;28;20487;-80
2024/01/12 00:14:54;;;;;;;47.28;24.70;;;0.50;99.90;;;;;;5030973;28;20085;-80
2024/01/12 00:17:19;;;;;;;39.50;22.25;;;0.50;99.90;;;;;;5029621;28;20221;-80
2024/01/12 00:19:48;;;;;;;41.80;25.02;;;0.50;99.90;;;;;;4991555;28;20048;-80
2024/01/12 00:22:14;;;;;;;39.15;21.35;;;0.50;99.90;;;;;;5030147;28;20171;-80
2024/01/12 00:24:39;;;;;;;42.60;23.23;;;0.60;99.90;;;;;;5029997;28;20128;-80
2024/01/12 00:27:05;;;;;;;43.67;22.42;;;0.60;99.90;;;;;;5029530;28;20037;-80
2024/01/12 00:29:31;;;;;;;42.65;22.65;;;0.60;99.90;;;;;;5028708;28;20522;-80
2024/01/12 00:31:56;;;;;;;46.10;24.00;;;0.60;99.90;;;;;;5010633;28;20042;-80
2024/01/12 00:34:22;;;;;;;42.13;22.50;;;0.70;99.90;;;;;;5030054;28;20777;-80
2024/01/12 00:36:49;;;;;;;49.95;25.30;;;0.60;99.90;;;;;;5011953;28;20511;-80
2024/01/12 00:39:17;;;;;;;51.20;24.45;;;0.60;99.90;;;;;;5029033;28;20124;-80
2024/01/12 00:41:42;;;;;;;43.30;22.55;;;0.70;99.90;;;;;;5030193;28;20068;-80
2024/01/12 00:44:08;;;;;;;52.25;25.52;;;0.70;99.90;;;;;;5032178;28;20049;-80
2024/01/12 00:46:33;;;;;;;55.85;25.45;;;0.70;99.90;;;;;;5029019;28;20045;-81
2024/01/12 00:48:59;;;;;;;46.97;24.33;;;0.70;99.90;;;;;;5028238;28;20048;-80
2024/01/12 00:51:25;;;;;;;45.20;24.27;;;0.70;99.90;;;;;;5010476;28;20598;-80
2024/01/12 00:53:51;;;;;;;40.60;17.88;;;0.70;99.90;;;;;;5027755;28;20068;-80
2024/01/12 00:56:16;;;;;;;32.80;16.80;;;0.80;99.90;;;;;;5029547;28;20044;-80
2024/01/12 00:58:43;;;;;;;36.63;17.90;;;0.90;99.90;;;;;;5031695;28;20044;-81
2024/01/12 01:01:09;;;;;;;43.63;17.65;;;1.00;99.90;;;;;;5027698;28;20046;-81
2024/01/12 01:03:36;;;;;;;30.63;15.73;;;1.10;99.90;;;;;;5028620;28;20143;-80
2024/01/12 01:06:02;;;;;;;34.95;15.82;;;1.10;99.90;;;;;;5010929;28;20569;-81
2024/01/12 01:08:28;;;;;;;37.33;17.27;;;1.10;99.90;;;;;;5031673;28;20041;-80
2024/01/12 01:10:53;;;;;;;36.35;17.52;;;1.20;99.90;;;;;;5031675;28;20049;-80
2024/01/12 01:13:19;;;;;;;39.30;18.17;;;1.20;99.90;;;;;;5029212;28;20056;-81
2024/01/12 01:15:45;;;;;;;39.15;19.10;;;1.10;99.90;;;;;;5011457;28;20056;-81
2024/01/12 01:18:10;;;;;;;35.50;16.77;;;1.50;99.90;;;;;;5029153;28;20179;-81
2024/01/12 01:20:37;;;;;;;37.05;16.77;;;1.10;99.90;;;;;;5028478;28;20191;-80
2024/01/12 01:23:03;;;;;;;31.50;16.35;;;1.10;99.90;;;;;;5029011;28;20048;-81
2024/01/12 01:25:29;;;;;;;36.92;15.93;;;1.10;99.90;;;;;;5029245;28;20041;-81
2024/01/12 01:27:54;;;;;;;24.85;15.27;;;1.10;99.90;;;;;;5029495;28;20083;-81
2024/01/12 01:30:21;;;;;;;29.25;15.50;;;1.00;99.90;;;;;;5010191;28;20041;-80
2024/01/12 01:32:48;;;;;;;28.05;12.18;;;1.00;99.90;;;;;;5028219;28;20599;-81
2024/01/12 01:35:15;;;;;;;31.35;12.13;;;1.00;99.90;;;;;;5040580;28;20120;-81
2024/01/12 01:37:40;;;;;;;25.10;12.02;;;1.10;99.90;;;;;;4992441;28;20060;-81
2024/01/12 01:40:07;;;;;;;19.15;10.80;;;1.10;99.90;;;;;;5027787;28;20049;-81
2024/01/12 01:42:33;;;;;;;17.55;9.57;;;1.20;99.90;;;;;;5011381;28;20600;-81
2024/01/12 01:44:59;;;;;;;28.50;11.00;;;1.20;99.90;;;;;;5026581;28;20053;-81
2024/01/12 01:47:25;;;;;;;22.52;10.50;;;1.30;99.90;;;;;;5028851;28;20041;-81
2024/01/12 01:49:51;;;;;;;20.33;10.88;;;1.30;99.90;;;;;;5013451;28;20052;-80
2024/01/12 01:52:18;;;;;;;22.55;9.93;;;1.30;99.90;;;;;;5026835;28;20037;-80
2024/01/12 01:54:44;;;;;;;21.20;10.40;;;1.40;99.90;;;;;;5026017;28;20044;-81
2024/01/12 01:57:10;;;;;;;21.48;9.10;;;1.50;99.90;;;;;;5028821;28;20060;-81
2024/01/12 01:59:36;;;;;;;22.80;10.18;;;1.50;99.90;;;;;;5037083;28;20261;-81
2024/01/12 02:02:03;;;;;;;21.38;10.52;;;1.50;99.90;;;;;;5026858;28;20927;-81
2024/01/12 02:04:29;;;;;;;18.63;9.27;;;1.50;99.90;;;;;;5008875;28;20084;-81
2024/01/12 02:06:55;;;;;;;16.98;8.50;;;1.60;99.90;;;;;;5005224;28;20557;-81
2024/01/12 02:09:21;;;;;;;20.08;8.63;;;1.60;99.90;;;;;;5026805;28;20076;-81
2024/01/12 02:11:47;;;;;;;18.55;8.25;;;1.50;99.90;;;;;;5029247;28;20116;-81
2024/01/12 02:14:12;;;;;;;21.95;7.20;;;1.60;99.90;;;;;;5024370;28;20133;-81
2024/01/12 02:16:38;;;;;;;19.00;8.18;;;1.60;99.90;;;;;;5027409;28;20052;-81
2024/01/12 02:19:04;;;;;;;16.98;7.63;;;1.70;99.90;;;;;;5027565;28;20041;-81
2024/01/12 02:21:30;;;;;;;12.23;6.72;;;1.70;99.90;;;;;;5036677;28;20164;-81
2024/01/12 02:23:55;;;;;;;15.65;7.68;;;1.60;99.90;;;;;;5037050;28;20041;-81
2024/01/12 02:26:21;;;;;;;18.40;6.97;;;1.70;99.90;;;;;;5027870;28;20389;-81
2024/01/12 02:28:47;;;;;;;18.60;7.45;;;1.60;99.90;;;;;;5027624;28;20048;-81
2024/01/12 02:31:15;;;;;;;13.05;7.10;;;1.70;99.90;;;;;;5026687;28;20047;-81
2024/01/12 02:33:40;;;;;;;18.77;7.95;;;1.60;99.90;;;;;;5008632;28;20123;-81
2024/01/12 02:36:07;;;;;;;14.25;6.78;;;1.60;99.90;;;;;;5027714;28;20099;-81
2024/01/12 02:38:33;;;;;;;16.10;7.00;;;1.70;99.90;;;;;;5024871;28;20463;-81
2024/01/12 02:40:58;;;;;;;11.20;6.70;;;1.70;99.90;;;;;;5009330;28;20077;-81
2024/01/12 02:43:25;;;;;;;17.75;6.43;;;1.80;99.90;;;;;;5027328;28;20779;-81
2024/01/12 02:45:50;;;;;;;17.30;6.20;;;1.80;99.90;;;;;;5027534;28;20120;-81
2024/01/12 02:48:16;;;;;;;12.73;6.65;;;1.80;99.90;;;;;;5027280;28;20176;-81
2024/01/12 02:50:42;;;;;;;18.60;7.18;;;1.80;99.90;;;;;;5027890;28;20089;-80
2024/01/12 02:53:08;;;;;;;16.45;6.72;;;1.80;99.90;;;;;;5009884;28;20042;-81
2024/01/12 02:55:33;;;;;;;13.85;6.78;;;1.80;99.90;;;;;;5025927;28;20506;-81
2024/01/12 02:57:59;;;;;;;14.23;6.93;;;1.90;99.90;;;;;;5027400;28;20077;-81
2024/01/12 03:00:24;;;;;;;14.55;6.85;;;1.80;99.90;;;;;;5026352;28;20054;-82
2024/01/12 03:02:50;;;;;;;16.70;6.45;;;1.80;99.90;;;;;;4995973;28;20050;-81
2024/01/12 03:05:16;;;;;;;11.27;6.68;;;1.80;99.90;;;;;;4990743;28;20058;-81
2024/01/12 03:07:41;;;;;;;16.67;6.63;;;1.80;99.90;;;;;;4986656;28;20050;-81
2024/01/12 03:10:07;;;;;;;14.43;7.03;;;1.80;99.90;;;;;;4985261;28;20053;-81
2024/01/12 03:12:33;;;;;;;11.13;6.05;;;1.70;99.90;;;;;;4987467;28;20046;-81
2024/01/12 03:14:58;;;;;;;10.32;7.00;;;1.70;99.90;;;;;;5002813;28;20551;-81
2024/01/12 03:17:24;;;;;;;13.10;6.47;;;1.70;99.90;;;;;;5011817;28;20070;-81
2024/01/12 03:19:49;;;;;;;14.07;6.25;;;1.70;99.90;;;;;;4997306;28;20049;-81
2024/01/12 03:22:15;;;;;;;11.70;5.72;;;1.70;99.90;;;;;;4991601;28;20489;-81
2024/01/12 03:24:41;;;;;;;10.38;5.45;;;1.60;99.90;;;;;;4994857;28;20875;-81
2024/01/12 03:27:06;;;;;;;9.18;5.93;;;1.60;99.90;;;;;;4991241;28;20034;-81
2024/01/12 03:29:32;;;;;;;12.90;5.65;;;1.60;99.90;;;;;;4990841;28;20070;-81
2024/01/12 03:31:57;;;;;;;14.45;6.55;;;1.50;99.90;;;;;;4991896;28;20489;-81
2024/01/12 03:34:23;;;;;;;17.48;6.40;;;1.50;99.90;;;;;;4990849;28;20141;-81
2024/01/12 03:36:48;;;;;;;9.70;5.18;;;1.50;99.90;;;;;;4992443;28;20096;-81
2024/01/12 03:39:14;;;;;;;12.85;6.50;;;1.50;99.90;;;;;;4988685;28;20042;-81
2024/01/12 03:41:40;;;;;;;9.57;6.15;;;1.90;99.90;;;;;;4990782;28;20035;-81
2024/01/12 03:44:05;;;;;;;14.10;5.65;;;1.40;99.90;;;;;;4989374;28;20046;-81
2024/01/12 03:46:31;;;;;;;12.48;5.70;;;1.40;99.90;;;;;;4990864;28;20457;-82
2024/01/12 03:48:56;;;;;;;14.57;6.60;;;1.40;99.90;;;;;;4989716;28;20412;-81
2024/01/12 03:51:22;;;;;;;8.93;5.53;;;1.30;99.90;;;;;;4991951;28;20042;-80
2024/01/12 03:53:47;;;;;;;7.38;5.05;;;1.30;99.90;;;;;;4989124;28;20108;-81
2024/01/12 03:56:13;;;;;;;11.60;5.30;;;1.30;99.90;;;;;;4997817;28;20041;-81
2024/01/12 03:58:38;;;;;;;9.48;5.53;;;1.30;99.90;;;;;;4994768;28;20050;-81
2024/01/12 04:01:07;;;;;;;14.73;5.72;;;1.30;99.90;;;;;;4972222;28;20042;-81
2024/01/12 04:03:33;;;;;;;10.68;5.20;;;1.20;99.90;;;;;;5025868;28;20046;-81
2024/01/12 04:05:59;;;;;;;12.63;5.72;;;1.20;99.90;;;;;;5030008;28;20592;-81
2024/01/12 04:08:25;;;;;;;10.57;6.15;;;1.20;99.90;;;;;;5028155;28;20128;-81
2024/01/12 04:10:50;;;;;;;12.55;6.15;;;1.20;99.90;;;;;;5035126;28;20045;-81
2024/01/12 04:13:16;;;;;;;12.68;5.68;;;1.20;99.90;;;;;;5033788;28;20384;-81
2024/01/12 04:15:43;;;;;;;6.97;4.82;;;1.30;99.90;;;;;;5012474;28;20033;-81
2024/01/12 04:18:09;;;;;;;12.63;5.93;;;1.20;99.90;;;;;;5029100;28;20033;-81
2024/01/12 04:20:34;;;;;;;11.80;5.80;;;1.20;99.90;;;;;;5030613;28;20098;-81
2024/01/12 04:23:00;;;;;;;14.57;6.10;;;1.20;99.90;;;;;;5049811;28;20036;-81
2024/01/12 04:25:26;;;;;;;10.75;6.45;;;1.10;99.90;;;;;;5043623;28;20040;-81
2024/01/12 04:27:51;;;;;;;12.55;6.65;;;1.00;99.90;;;;;;5030077;28;20045;-81
2024/01/12 04:30:17;;;;;;;15.48;8.63;;;0.90;99.90;;;;;;5030094;28;20041;-81
2024/01/12 04:32:43;;;;;;;28.73;12.32;;;0.80;99.90;;;;;;5028463;28;20045;-81
2024/01/12 04:35:09;;;;;;;22.48;8.70;;;0.70;99.90;;;;;;5028589;28;20041;-81
2024/01/12 04:37:35;;;;;;;18.30;7.60;;;0.60;99.90;;;;;;5049055;28;20403;-81
2024/01/12 04:40:00;;;;;;;17.38;7.50;;;0.60;99.90;;;;;;5028440;28;20038;-81
2024/01/12 04:42:26;;;;;;;16.65;8.25;;;0.60;99.90;;;;;;5029875;28;20115;-80
2024/01/12 04:44:51;;;;;;;14.50;6.22;;;0.60;99.90;;;;;;5028821;28;20037;-81
2024/01/12 04:47:17;;;;;;;12.15;6.28;;;0.50;99.90;;;;;;5042911;28;20041;-81
2024/01/12 04:49:43;;;;;;;12.15;6.55;;;0.60;99.90;;;;;;5029262;28;20041;-80
2024/01/12 04:52:08;;;;;;;10.32;5.35;;;0.60;99.90;;;;;;5010084;28;20490;-81
2024/01/12 04:54:34;;;;;;;13.00;5.53;;;0.60;99.90;;;;;;5016952;28;20191;-81
2024/01/12 04:56:59;;;;;;;11.18;6.00;;;0.70;99.90;;;;;;5027382;28;20058;-81
2024/01/12 04:59:25;;;;;;;8.63;5.32;;;0.70;99.90;;;;;;5029255;28;20361;-81
2024/01/12 05:01:50;;;;;;;11.45;5.93;;;0.70;99.90;;;;;;5028738;28;20069;-81
2024/01/12 05:04:16;;;;;;;11.07;5.65;;;0.70;99.90;;;;;;5030046;28;20057;-81
2024/01/12 05:06:42;;;;;;;16.33;5.97;;;0.70;99.90;;;;;;5030484;28;20693;-81
2024/01/12 05:09:07;;;;;;;11.63;5.68;;;0.90;99.90;;;;;;5029218;28;20047;-81
2024/01/12 05:11:33;;;;;;;12.18;5.57;;;0.90;99.90;;;;;;5012239;28;20041;-81
2024/01/12 05:13:59;;;;;;;16.65;6.47;;;1.10;99.90;;;;;;5028373;28;20042;-81
2024/01/12 05:16:25;;;;;;;9.95;5.50;;;1.10;99.90;;;;;;5027330;28;20057;-81
2024/01/12 05:18:51;;;;;;;10.45;5.70;;;1.30;99.90;;;;;;5028633;28;20395;-81
2024/01/12 05:21:16;;;;;;;11.15;5.88;;;1.30;99.90;;;;;;5028747;28;20780;-81
2024/01/12 05:23:46;;;;;;;11.02;6.07;;;1.40;99.90;;;;;;5029801;28;20135;-81
2024/01/12 05:26:12;;;;;;;12.38;5.40;;;1.40;99.90;;;;;;5011077;28;20057;-81
2024/01/12 05:28:38;;;;;;;13.85;6.10;;;1.30;99.90;;;;;;5007904;28;20402;-81
2024/01/12 05:31:03;;;;;;;10.40;5.80;;;1.40;99.90;;;;;;5025558;28;20049;-81
2024/01/12 05:33:30;;;;;;;10.43;5.35;;;1.40;99.90;;;;;;5011285;28;20046;-81
2024/01/12 05:35:56;;;;;;;11.65;5.28;;;1.40;99.90;;;;;;5029268;28;20400;-81
2024/01/12 05:38:21;;;;;;;14.50;6.25;;;1.40;99.90;;;;;;5026870;28;20049;-81
2024/01/12 05:40:47;;;;;;;16.33;5.93;;;1.30;99.90;;;;;;5010921;28;20050;-81
2024/01/12 05:43:13;;;;;;;11.52;5.32;;;1.30;99.90;;;;;;4994169;28;20459;-81
2024/01/12 05:45:38;;;;;;;11.77;6.00;;;1.40;99.90;;;;;;5010145;28;20068;-81
2024/01/12 05:48:04;;;;;;;18.63;6.15;;;1.40;99.90;;;;;;5031255;28;20041;-81
2024/01/12 05:50:30;;;;;;;14.75;5.80;;;1.30;99.90;;;;;;5031488;28;20172;-81
2024/01/12 05:52:55;;;;;;;10.95;5.45;;;1.30;99.90;;;;;;5026933;28;20045;-81
2024/01/12 05:55:21;;;;;;;15.15;6.45;;;1.30;99.90;;;;;;5030851;28;20483;-81
2024/01/12 05:57:46;;;;;;;12.70;5.60;;;1.30;99.90;;;;;;5027470;28;20372;-81
2024/01/12 06:00:12;;;;;;;13.65;6.22;;;1.30;99.90;;;;;;5014123;28;20060;-81
2024/01/12 06:02:38;;;;;;;11.32;5.82;;;1.30;99.90;;;;;;5008939;28;20057;-81
2024/01/12 06:05:04;;;;;;;12.13;5.30;;;1.30;99.90;;;;;;5014700;28;20054;-82
2024/01/12 06:07:29;;;;;;;13.00;4.95;;;1.30;99.90;;;;;;5006658;28;20129;-80
2024/01/12 06:09:55;;;;;;;13.52;5.00;;;1.30;99.90;;;;;;5008937;28;20053;-80
2024/01/12 06:12:20;;;;;;;12.77;4.90;;;1.30;99.90;;;;;;5026400;28;20037;-81
2024/01/12 06:14:46;;;;;;;10.10;4.72;;;1.30;99.90;;;;;;5027576;28;20521;-81
2024/01/12 06:17:12;;;;;;;8.73;4.53;;;1.30;99.90;;;;;;5024769;28;20045;-81
2024/01/12 06:19:38;;;;;;;14.20;5.65;;;1.30;99.90;;;;;;5009842;28;20067;-81
2024/01/12 06:22:04;;;;;;;14.32;5.72;;;1.30;99.90;;;;;;5025561;28;20053;-81
2024/01/12 06:24:30;;;;;;;14.88;5.25;;;1.40;99.90;;;;;;5027921;28;20506;-80
2024/01/12 06:26:55;;;;;;;10.48;4.63;;;1.40;99.90;;;;;;5026363;28;20045;-81
2024/01/12 06:29:21;;;;;;;9.80;4.28;;;1.40;99.90;;;;;;5028324;28;20037;-80
2024/01/12 06:31:47;;;;;;;7.32;4.35;;;1.40;99.90;;;;;;5027124;28;20065;-80
2024/01/12 06:34:13;;;;;;;9.40;4.82;;;1.40;99.90;;;;;;5026046;28;20088;-80
2024/01/12 06:36:44;;;;;;;6.25;4.70;;;1.30;99.90;;;;;;5027542;28;20072;-80
2024/01/12 06:39:10;;;;;;;12.85;5.03;;;1.30;99.90;;;;;;5026728;28;20045;-80
2024/01/12 06:41:42;;;;;;;12.23;4.93;;;1.30;99.90;;;;;;5027128;28;20052;-80
2024/01/12 06:44:08;;;;;;;13.82;5.28;;;1.30;99.90;;;;;;5019951;28;20041;-81
2024/01/12 06:46:35;;;;;;;12.77;5.18;;;1.30;99.90;;;;;;5026910;28;20045;-81
2024/01/12 06:49:01;;;;;;;12.20;5.25;;;1.30;99.90;;;;;;5009953;28;20128;-80
2024/01/12 06:51:26;;;;;;;13.90;5.35;;;1.30;99.90;;;;;;5017359;28;20125;-81
2024/01/12 06:53:52;;;;;;;10.57;5.10;;;1.30;99.90;;;;;;5025635;28;20049;-81
2024/01/12 06:56:21;;;;;;;10.85;5.00;;;1.30;99.90;;;;;;5009231;28;20048;-81
2024/01/12 06:58:47;;;;;;;15.90;5.18;;;1.30;99.90;;;;;;5027321;28;20133;-81
2024/01/12 07:01:12;;;;;;;8.25;4.47;;;1.30;99.90;;;;;;5024955;28;20049;-81
2024/01/12 07:03:38;;;;;;;11.15;5.65;;;1.40;99.90;;;;;;5016709;28;20132;-80
2024/01/12 07:06:04;;;;;;;10.40;5.43;;;1.40;99.90;;;;;;5008548;28;20518;-81
2024/01/12 07:08:30;;;;;;;7.18;4.43;;;1.40;99.90;;;;;;5024725;28;20120;-81
2024/01/12 07:10:55;;;;;;;12.65;5.50;;;1.40;99.90;;;;;;4993960;28;20045;-82
2024/01/12 07:13:21;;;;;;;9.98;5.13;;;1.40;99.90;;;;;;5009370;28;20057;-80
2024/01/12 07:15:47;;;;;;;9.25;5.13;;;1.40;99.90;;;;;;5027020;28;20132;-81
2024/01/12 07:18:12;;;;;;;14.93;5.22;;;1.40;99.90;;;;;;5025574;28;20052;-81
2024/01/12 07:20:38;;;;;;;14.57;5.45;;;1.40;99.90;;;;;;5011418;28;20072;-81
2024/01/12 07:23:03;;;;;;;11.43;5.68;;;1.40;99.90;;;;;;5026882;28;20053;-81
2024/01/12 07:25:29;;;;;;;14.07;5.72;;;1.40;99.90;;;;;;5027695;28;20096;-81
2024/01/12 07:27:55;;;;;;;22.27;5.40;;;1.50;99.90;;;;;;5027273;28;20041;-80
2024/01/12 07:30:21;;;;;;;12.15;5.55;;;1.50;99.90;;;;;;5029548;28;20661;-81
2024/01/12 07:32:46;;;;;;;13.25;5.97;;;1.50;99.90;;;;;;5028094;28;20132;-81
2024/01/12 07:35:12;;;;;;;16.73;5.40;;;1.50;99.90;;;;;;5030696;28;20045;-81
2024/01/12 07:37:38;;;;;;;15.50;5.65;;;1.60;99.90;;;;;;5026852;28;20077;-82
2024/01/12 07:40:04;;;;;;;13.13;6.07;;;1.60;99.90;;;;;;5026635;28;20053;-81
2024/01/12 07:42:30;;;;;;;12.18;5.80;;;1.60;99.90;;;;;;5026996;28;20061;-79
2024/01/12 07:44:56;;;;;;;16.00;5.90;;;1.60;99.90;;;;;;5027513;28;20045;-80
2024/01/12 07:47:22;;;;;;;13.57;5.97;;;1.60;99.90;;;;;;5009526;28;20049;-80
2024/01/12 07:49:47;;;;;;;15.05;6.22;;;1.60;99.90;;;;;;5010190;28;20053;-79
2024/01/12 07:52:13;;;;;;;15.07;6.00;;;1.50;99.90;;;;;;5009806;28;20075;-79
2024/01/12 07:54:38;;;;;;;13.18;6.30;;;1.60;99.90;;;;;;5028234;28;20056;-79
2024/01/12 07:57:04;;;;;;;12.70;6.82;;;1.60;99.90;;;;;;5027186;28;20053;-79
2024/01/12 07:59:30;;;;;;;15.45;6.85;;;1.60;99.90;;;;;;5027521;28;20042;-79
2024/01/12 08:01:55;;;;;;;14.98;7.10;;;1.60;99.90;;;;;;5029926;28;20099;-79
2024/01/12 08:04:21;;;;;;;15.60;6.57;;;1.60;99.90;;;;;;5011997;28;20045;-80
2024/01/12 08:06:47;;;;;;;14.57;6.45;;;1.60;99.90;;;;;;5028274;28;20139;-79
2024/01/12 08:09:13;;;;;;;14.30;6.38;;;1.70;99.90;;;;;;5050397;28;20414;-80
2024/01/12 08:11:39;;;;;;;14.52;6.57;;;1.70;99.90;;;;;;5052343;28;20059;-79
2024/01/12 08:14:05;;;;;;;14.98;6.50;;;1.70;99.90;;;;;;5032818;28;20041;-79
2024/01/12 08:16:31;;;;;;;16.35;6.22;;;1.70;99.90;;;;;;5027830;28;20057;-80
2024/01/12 08:18:57;;;;;;;16.70;7.10;;;1.70;99.90;;;;;;4994632;28;20049;-83
2024/01/12 08:21:22;;;;;;;17.15;6.90;;;1.80;99.90;;;;;;5030243;28;20107;-80
2024/01/12 08:23:48;;;;;;;11.93;7.57;;;1.80;99.90;;;;;;5012565;28;20499;-80
2024/01/12 08:26:13;;;;;;;16.48;6.82;;;1.80;99.90;;;;;;5030632;28;20052;-81
2024/01/12 08:28:39;;;;;;;11.68;5.85;;;1.80;99.90;;;;;;5013242;28;20041;-81
2024/01/12 08:31:05;;;;;;;20.17;7.63;;;1.80;99.90;;;;;;5037245;28;20095;-81
2024/01/12 08:33:31;;;;;;;14.25;7.47;;;1.90;99.90;;;;;;5030838;28;20053;-80
2024/01/12 08:35:56;;;;;;;16.02;6.80;;;1.80;99.90;;;;;;5047385;28;20521;-81
2024/01/12 08:38:22;;;;;;;18.05;6.85;;;1.90;99.90;;;;;;5047570;28;20506;-80
2024/01/12 08:40:47;;;;;;;13.05;5.45;;;1.90;99.90;;;;;;5045183;28;20049;-80
2024/01/12 08:43:13;;;;;;;14.88;6.53;;;1.90;99.90;;;;;;5014408;28;20056;-81
2024/01/12 08:45:39;;;;;;;16.00;5.75;;;1.90;99.90;;;;;;5049136;28;20512;-81
2024/01/12 08:48:05;;;;;;;17.23;6.55;;;1.90;99.90;;;;;;5049656;28;20041;-81
2024/01/12 08:50:31;;;;;;;20.35;7.00;;;1.90;99.90;;;;;;5050577;28;20107;-80
2024/01/12 08:52:58;;;;;;;13.68;6.32;;;2.00;99.90;;;;;;5015317;28;20045;-81
2024/01/12 08:55:24;;;;;;;13.98;5.82;;;2.00;99.90;;;;;;5049067;28;20084;-81
2024/01/12 08:57:52;;;;;;;15.10;5.50;;;2.00;99.90;;;;;;5050159;28;20620;-81
2024/01/12 09:00:17;;;;;;;11.65;6.65;;;2.10;99.90;;;;;;5049093;28;20048;-81
2024/01/12 09:02:43;;;;;;;16.52;6.47;;;2.10;99.90;;;;;;5031424;28;20544;-81
2024/01/12 09:05:09;;;;;;;14.40;5.95;;;2.10;99.90;;;;;;5049713;28;20829;-81
2024/01/12 09:07:34;;;;;;;14.00;5.75;;;2.10;99.90;;;;;;5033498;28;20056;-81
2024/01/12 09:10:01;;;;;;;13.65;5.88;;;2.10;99.90;;;;;;4995301;28;20046;-81
2024/01/12 09:12:26;;;;;;;16.02;6.28;;;2.20;99.90;;;;;;5010649;28;20808;-80
2024/01/12 09:14:52;;;;;;;14.52;5.25;;;2.20;99.90;;;;;;5011642;28;20079;-81
2024/01/12 09:17:18;;;;;;;16.52;6.30;;;2.20;99.90;;;;;;5029760;28;20045;-81
2024/01/12 09:19:43;;;;;;;20.23;6.25;;;2.20;99.90;;;;;;4995910;28;20052;-81
2024/01/12 09:22:09;;;;;;;11.38;6.45;;;2.20;99.90;;;;;;5042789;28;20087;-81
2024/01/12 09:24:35;;;;;;;15.05;6.90;;;2.20;99.90;;;;;;5047907;28;20452;-81
2024/01/12 09:27:00;;;;;;;12.00;6.30;;;2.30;99.90;;;;;;5049080;28;20037;-80
2024/01/12 09:29:26;;;;;;;15.80;7.03;;;2.30;99.90;;;;;;5049526;28;20049;-80
2024/01/12 09:31:51;;;;;;;11.60;6.22;;;2.30;99.90;;;;;;5039687;28;20046;-81
2024/01/12 09:34:17;;;;;;;14.48;6.47;;;2.30;99.90;;;;;;5011805;28;20072;-81
2024/01/12 09:36:44;;;;;;;12.57;5.88;;;2.30;99.90;;;;;;5029392;28;20136;-80
2024/01/12 09:39:14;;;;;;;16.88;5.85;;;2.30;99.90;;;;;;5029012;28;20184;-81
2024/01/12 09:41:47;;;;;;;14.38;6.28;;;2.30;99.90;;;;;;5029418;28;20114;-81
2024/01/12 09:44:19;;;;;;;10.23;6.28;;;2.30;99.90;;;;;;5029038;28;20045;-81
2024/01/12 09:46:56;;;;;;;14.02;6.80;;;2.40;99.90;;;;;;5021600;28;20041;-82
2024/01/12 09:49:27;;;;;;;18.13;6.10;;;2.40;99.90;;;;;;5031202;28;20052;-82
2024/01/12 09:51:53;;;;;;;11.50;5.97;;;2.40;99.90;;;;;;5030695;28;20134;-81
2024/01/12 09:54:18;;;;;;;15.95;6.35;;;2.40;99.90;;;;;;5047557;28;20088;-81
2024/01/12 09:56:44;;;;;;;9.55;5.25;;;2.50;99.90;;;;;;5046875;28;20029;-81
2024/01/12 09:59:11;;;;;;;12.70;5.57;;;2.60;99.90;;;;;;5029908;28;20486;-81
2024/01/12 10:01:41;;;;;;;16.23;6.03;;;2.60;99.90;;;;;;5048544;28;20524;-81
2024/01/12 10:04:06;;;;;;;12.75;5.75;;;2.70;99.90;;;;;;5030020;28;20522;-79
2024/01/12 10:06:32;;;;;;;9.65;4.82;;;2.70;99.90;;;;;;5030749;28;20043;-80
2024/01/12 10:08:58;;;;;;;14.48;6.35;;;2.80;99.90;;;;;;5047287;28;20048;-80
2024/01/12 10:11:24;;;;;;;12.13;5.32;;;2.90;99.90;;;;;;5041035;28;20063;-80
2024/01/12 10:13:50;;;;;;;14.13;5.65;;;2.90;99.90;;;;;;5028956;28;20429;-79
2024/01/12 10:16:17;;;;;;;13.02;5.57;;;2.90;99.90;;;;;;5028487;28;20077;-80
2024/01/12 10:18:42;;;;;;;21.35;7.00;;;3.00;99.90;;;;;;5011005;28;20056;-79
2024/01/12 10:21:08;;;;;;;14.70;4.93;;;3.00;99.90;;;;;;5027940;28;20041;-80
2024/01/12 10:23:34;;;;;;;11.75;5.53;;;3.10;99.90;;;;;;5009000;28;20187;-82
2024/01/12 10:26:03;;;;;;;11.88;5.20;;;;;;;;;;5027260;28;20049;-81
2024/01/12 10:28:30;;;;;;;12.75;5.45;;;;;;;;;;5013913;28;20415;-80
2024/01/12 10:30:56;;;;;;;17.17;5.20;;;;;;;;;;5025521;28;20500;-80
2024/01/12 10:33:23;;;;;;;14.07;5.15;;;;;;;;;;5025800;28;20134;-80
2024/01/12 10:35:59;;;;;;;14.80;4.70;;;;;;;;;;5017091;28;20037;-80
2024/01/12 10:38:28;;;;;;;12.65;4.03;;;;;;;;;;5028075;28;20076;-80
2024/01/12 10:40:58;;;;;;;14.13;4.50;;;;;;;;;;5028601;28;20046;-80
2024/01/12 10:43:24;;;;;;;15.82;4.25;;;;;;;;;;5028314;28;20129;-81
2024/01/12 10:45:52;;;;;;;11.05;3.65;;;;;;;;;;5028733;28;20049;-80
2024/01/12 10:48:21;;;;;;;9.70;3.85;;;;;;;;;;5030278;28;20474;-79
2024/01/12 10:50:48;;;;;;;79.30;11.75;;;;;;;;;;5030018;28;20141;-78
2024/01/12 10:53:18;;;;;;;11.20;3.45;;;;;;;;;;5039038;28;20045;-81
2024/01/12 10:55:50;;;;;;;11.73;3.83;;;;;;;;;;5029227;28;20042;-81
2024/01/12 10:58:17;;;;;;;14.25;4.20;;;;;;;;;;5029751;28;20045;-80
2024/01/12 11:00:43;;;;;;;14.15;3.50;;;;;;;;;;5029059;28;20058;-79
2024/01/12 11:03:09;;;;;;;13.50;4.10;;;;;;;;;;5045678;28;20106;-78
2024/01/12 11:05:37;;;;;;;12.18;3.92;;;;;;;;;;5048574;28;20063;-79
2024/01/12 11:08:07;;;;;;;15.85;5.38;;;;;;;;;;5047770;28;20076;-79
2024/01/12 11:10:33;;;;;;;19.58;6.60;;;;;;;;;;5029551;28;20148;-81
2024/01/12 11:12:59;;;;;;;13.30;4.95;;;;;;;;;;5038735;28;20040;-80
2024/01/12 11:15:25;;;;;;;15.80;4.90;;;;;;;;;;5029188;28;20093;-78
2024/01/12 11:17:51;;;;;;;14.77;4.80;;;;;;;;;;5025604;28;20042;-79
2024/01/12 11:20:19;;;;;;;14.13;5.18;;;;;;;;;;5008901;28;20472;-79
2024/01/12 11:22:46;;;;;;;12.73;4.40;;;;;;;;;;5035435;28;20052;-79
2024/01/12 11:25:12;;;;;;;17.92;4.00;;;;;;;;;;5026472;28;20175;-80
2024/01/12 11:27:40;;;;;;;11.43;3.92;;;;;;;;;;5043351;28;20118;-80
2024/01/12 11:30:06;;;;;;;11.90;2.88;;;;;;;;;;5047638;28;20041;-79
2024/01/12 11:32:32;;;;;;;11.77;3.22;;;;;;;;;;5048323;28;20037;-80
2024/01/12 11:35:14;;;;;;;16.33;3.45;;;;;;;;;;5031060;28;20045;-79
2024/01/12 11:37:42;;;;;;;16.98;5.10;;;;;;;;;;5031307;28;20045;-78
2024/01/12 11:40:10;;;;;;;13.30;5.25;;;;;;;;;;5021659;28;20056;-79
2024/01/12 11:42:40;;;;;;;18.65;4.97;;;;;;;;;;5023082;28;20044;-80
2024/01/12 11:45:10;;;;;;;15.32;6.45;;;;;;;;;;5030577;28;20057;-80
2024/01/12 11:47:40;;;;;;;12.43;3.33;;;;;;;;;;5015930;28;20618;-79
2024/01/12 11:50:09;;;;;;;12.82;3.40;;;;;;;;;;5029175;28;20071;-80
2024/01/12 11:52:36;;;;;;;12.35;3.60;;;;;;;;;;5030945;28;20049;-79
2024/01/12 11:55:04;;;;;;;11.57;3.08;;;;;;;;;;5024809;28;20046;-79
2024/01/12 11:57:31;;;;;;;11.27;3.03;;;;;;;;;;5027667;28;20049;-79
2024/01/12 11:59:57;;;;;;;15.27;3.55;;;;;;;;;;5029453;28;20080;-79
2024/01/12 12:02:24;;;;;;;12.68;3.45;;;;;;;;;;5032028;28;20514;-79
2024/01/12 12:04:51;;;;;;;14.13;2.90;;;;;;;;;;5006034;28;20160;-79
2024/01/12 12:07:25;;;;;;;14.05;3.17;;;;;;;;;;5011238;28;20054;-80
2024/01/12 12:09:51;;;;;;;13.73;3.42;;;;;;;;;;5028263;28;20486;-79
2024/01/12 12:12:17;;;;;;;10.40;2.67;;;;;;;;;;5030364;28;20502;-79
2024/01/12 12:15:06;;;;;;;11.43;3.28;;;;;;;;;;5030744;28;20056;-79
2024/01/12 12:17:34;;;;;;;16.02;4.70;;;;;;;;;;5012201;28;20055;-80
2024/01/12 12:20:00;;;;;;;8.93;3.42;;;;;;;;;;5030928;28;20671;-80
2024/01/12 12:22:26;;;;;;;12.80;3.03;;;;;;;;;;5030084;28;20046;-79
2024/01/12 12:24:52;;;;;;;15.43;3.50;;;;;;;;;;5012764;28;20076;-79
2024/01/12 12:27:18;;;;;;;16.48;4.63;;;;;;;;;;5028905;28;20041;-79
2024/01/12 12:29:45;;;;;;;17.83;4.70;;;;;;;;;;5030460;28;20155;-78
2024/01/12 12:32:12;;;;;;;13.45;4.35;;;;;;;;;;5030157;28;20045;-78
2024/01/12 12:34:45;;;;;;;16.30;4.45;;;;;;;;;;5030207;28;20046;-78
2024/01/12 12:37:13;;;;;;;18.65;4.35;;;;;;;;;;5030333;28;20080;-78
2024/01/12 12:39:39;;;;;;;11.60;2.85;;;;;;;;;;5030534;28;20041;-78
2024/01/12 12:42:06;;;;;;;14.68;3.65;;;;;;;;;;5011695;28;20046;-78
2024/01/12 12:44:35;;;;;;;11.65;2.90;;;;;;;;;;5029557;28;20037;-78
2024/01/12 12:47:04;;;;;;;14.77;3.47;;;;;;;;;;5029946;28;20140;-78
2024/01/12 12:49:33;;;;;;;9.23;3.10;;;;;;;;;;5030117;28;20050;-78
2024/01/12 12:52:00;;;;;;;14.05;3.60;;;;;;;;;;5029963;28;20045;-78
2024/01/12 12:54:30;;;;;;;12.00;3.67;;;;;;;;;;5033552;28;20102;-78
2024/01/12 12:56:56;;;;;;;18.42;4.32;;;;;;;;;;5049863;28;20037;-78
2024/01/12 12:59:23;;;;;;;12.90;3.50;;;;;;;;;;5037596;28;20147;-79